createdAt,value
2018-01-04T00:00:30.968Z,976.02
2018-01-04T00:01:30.887Z,975.93
2018-01-04T00:02:30.807Z,976.04
2018-01-04T00:03:30.728Z,975.91
2018-01-04T00:04:30.648Z,975.96
2018-01-04T00:05:30.567Z,976.00
2018-01-04T00:06:30.489Z,975.94
2018-01-04T00:07:30.410Z,975.87
2018-01-04T00:08:30.329Z,975.99
2018-01-04T00:09:30.248Z,975.92
2018-01-04T00:10:30.167Z,975.89
2018-01-04T00:11:30.088Z,975.96
2018-01-04T00:12:30.011Z,975.89
2018-01-04T00:13:29.927Z,975.80
2018-01-04T00:14:29.847Z,975.95
2018-01-04T00:15:29.768Z,975.72
2018-01-04T00:16:29.689Z,975.92
2018-01-04T00:17:29.606Z,975.80
2018-01-04T00:18:29.528Z,975.94
2018-01-04T00:19:29.448Z,975.90
2018-01-04T00:20:29.369Z,976.02
2018-01-04T00:21:29.287Z,976.02
2018-01-04T00:22:29.207Z,976.04
2018-01-04T00:23:29.128Z,976.07
2018-01-04T00:24:29.047Z,975.98
2018-01-04T00:25:28.967Z,976.01
2018-01-04T00:26:28.887Z,976.09
2018-01-04T00:27:28.808Z,976.05
2018-01-04T00:28:28.727Z,976.08
2018-01-04T00:29:28.646Z,976.05
2018-01-04T00:30:28.567Z,976.06
2018-01-04T00:31:28.491Z,975.76
2018-01-04T00:32:28.408Z,975.94
2018-01-04T00:33:28.326Z,976.02
2018-01-04T00:34:28.246Z,976.04
2018-01-04T00:35:28.166Z,976.06
2018-01-04T00:36:28.087Z,976.12
2018-01-04T00:37:28.008Z,976.04
2018-01-04T00:38:27.930Z,975.99
2018-01-04T00:39:27.847Z,976.20
2018-01-04T00:40:27.767Z,976.13
2018-01-04T00:41:27.689Z,976.22
2018-01-04T00:42:27.608Z,976.12
2018-01-04T00:43:27.528Z,976.14
2018-01-04T00:44:27.448Z,976.25
2018-01-04T00:45:27.367Z,976.10
2018-01-04T00:46:27.287Z,976.12
2018-01-04T00:47:27.208Z,976.16
2018-01-04T00:48:27.128Z,976.06
2018-01-04T00:49:27.048Z,976.09
2018-01-04T00:50:26.968Z,976.16
2018-01-04T00:51:26.889Z,976.10
2018-01-04T00:52:26.809Z,976.12
2018-01-04T00:53:26.729Z,976.23
2018-01-04T00:54:26.649Z,976.26
2018-01-04T00:55:26.569Z,976.21
2018-01-04T00:56:26.490Z,976.16
2018-01-04T00:57:26.410Z,976.34
2018-01-04T00:58:26.330Z,976.36
2018-01-04T00:59:26.250Z,976.33
2018-01-04T01:00:26.171Z,976.31
2018-01-04T01:01:26.090Z,976.29
2018-01-04T01:02:26.011Z,976.36
2018-01-04T01:03:25.931Z,976.27
2018-01-04T01:04:25.852Z,976.24
2018-01-04T01:05:25.772Z,976.19
2018-01-04T01:06:25.691Z,976.26
2018-01-04T01:07:25.613Z,976.24
2018-01-04T01:08:25.533Z,976.28
2018-01-04T01:09:25.457Z,976.31
2018-01-04T01:10:25.373Z,976.34
2018-01-04T01:11:25.292Z,976.27
2018-01-04T01:12:25.214Z,976.35
2018-01-04T01:13:25.134Z,976.41
2018-01-04T01:14:25.055Z,976.42
2018-01-04T01:15:24.975Z,976.37
2018-01-04T01:16:24.894Z,976.41
2018-01-04T01:17:24.814Z,976.33
2018-01-04T01:18:24.736Z,976.26
2018-01-04T01:19:24.656Z,976.29
2018-01-04T01:20:24.577Z,976.43
2018-01-04T01:21:24.499Z,976.35
2018-01-04T01:22:24.417Z,976.32
2018-01-04T01:23:24.337Z,976.28
2018-01-04T01:24:24.257Z,976.24
2018-01-04T01:25:24.176Z,976.20
2018-01-04T01:26:24.096Z,976.12
2018-01-04T01:27:24.017Z,976.11
2018-01-04T01:28:23.938Z,976.14
2018-01-04T01:29:23.857Z,976.20
2018-01-04T01:30:23.778Z,976.15
2018-01-04T01:31:23.698Z,976.27
2018-01-04T01:32:23.619Z,976.21
2018-01-04T01:33:23.537Z,976.10
2018-01-04T01:34:23.458Z,976.15
2018-01-04T01:35:23.378Z,976.06
2018-01-04T01:36:23.299Z,976.13
2018-01-04T01:37:23.218Z,976.18
2018-01-04T01:38:23.138Z,976.07
2018-01-04T01:39:23.060Z,976.18
2018-01-04T01:40:22.978Z,976.12
2018-01-04T01:41:22.899Z,976.07
2018-01-04T01:42:22.818Z,975.95
2018-01-04T01:43:22.739Z,976.03
2018-01-04T01:44:22.659Z,976.03
2018-01-04T01:45:22.579Z,975.96
2018-01-04T01:46:22.498Z,975.97
2018-01-04T01:47:22.419Z,975.99
2018-01-04T01:48:22.339Z,976.03
2018-01-04T01:49:22.260Z,975.96
2018-01-04T01:50:22.178Z,975.92
2018-01-04T01:51:22.098Z,975.97
2018-01-04T01:52:22.019Z,976.09
2018-01-04T01:53:21.938Z,975.97
2018-01-04T01:54:21.858Z,976.04
2018-01-04T01:55:21.779Z,975.96
2018-01-04T01:56:21.699Z,976.04
2018-01-04T01:57:21.619Z,975.95
2018-01-04T01:58:21.540Z,975.87
2018-01-04T01:59:21.459Z,975.88
2018-01-04T02:00:21.380Z,975.93
2018-01-04T02:01:21.298Z,976.07
2018-01-04T02:02:21.219Z,976.02
2018-01-04T02:03:21.140Z,976.05
2018-01-04T02:04:21.061Z,976.12
2018-01-04T02:05:21.015Z,976.10
2018-01-04T02:06:20.899Z,976.17
2018-01-04T02:07:20.818Z,976.12
2018-01-04T02:08:20.738Z,976.13
2018-01-04T02:09:20.659Z,976.16
2018-01-04T02:10:20.579Z,976.24
2018-01-04T02:11:20.498Z,976.19
2018-01-04T02:12:20.419Z,976.14
2018-01-04T02:13:20.339Z,976.12
2018-01-04T02:14:20.258Z,976.17
2018-01-04T02:15:20.179Z,976.12
2018-01-04T02:16:20.101Z,976.00
2018-01-04T02:17:20.019Z,976.01
2018-01-04T02:18:19.939Z,976.02
2018-01-04T02:19:19.861Z,976.09
2018-01-04T02:20:19.779Z,976.06
2018-01-04T02:21:19.699Z,975.92
2018-01-04T02:22:19.620Z,976.04
2018-01-04T02:23:19.541Z,976.08
2018-01-04T02:24:19.463Z,976.06
2018-01-04T02:25:19.382Z,976.14
2018-01-04T02:26:19.302Z,976.12
2018-01-04T02:27:19.222Z,976.14
2018-01-04T02:28:19.142Z,976.14
2018-01-04T02:29:19.060Z,976.12
2018-01-04T02:30:18.981Z,976.15
2018-01-04T02:31:18.902Z,976.10
2018-01-04T02:32:18.823Z,976.10
2018-01-04T02:33:18.743Z,976.10
2018-01-04T02:34:18.662Z,976.16
2018-01-04T02:35:18.584Z,976.23
2018-01-04T02:36:18.506Z,976.25
2018-01-04T02:37:18.424Z,976.32
2018-01-04T02:38:18.344Z,976.21
2018-01-04T02:39:18.265Z,976.28
2018-01-04T02:40:18.185Z,976.37
2018-01-04T02:41:18.103Z,976.48
2018-01-04T02:42:18.025Z,976.35
2018-01-04T02:43:17.944Z,976.51
2018-01-04T02:44:17.865Z,976.42
2018-01-04T02:45:17.784Z,976.45
2018-01-04T02:46:17.711Z,976.51
2018-01-04T02:47:17.626Z,976.53
2018-01-04T02:48:17.546Z,976.58
2018-01-04T02:49:17.464Z,976.44
2018-01-04T02:50:17.384Z,976.41
2018-01-04T02:51:17.304Z,976.42
2018-01-04T02:52:17.224Z,976.43
2018-01-04T02:53:17.144Z,976.43
2018-01-04T02:54:17.063Z,976.41
2018-01-04T02:55:16.983Z,976.41
2018-01-04T02:56:16.905Z,976.43
2018-01-04T02:57:16.824Z,976.44
2018-01-04T02:58:16.743Z,976.49
2018-01-04T02:59:16.663Z,976.46
2018-01-04T03:00:16.583Z,976.47
2018-01-04T03:01:16.504Z,976.44
2018-01-04T03:02:16.422Z,976.41
2018-01-04T03:03:16.342Z,976.44
2018-01-04T03:04:16.264Z,976.42
2018-01-04T03:05:16.182Z,976.41
2018-01-04T03:06:16.104Z,976.36
2018-01-04T03:07:16.025Z,976.40
2018-01-04T03:08:15.944Z,976.43
2018-01-04T03:09:15.863Z,976.47
2018-01-04T03:10:15.783Z,976.50
2018-01-04T03:11:15.702Z,976.49
2018-01-04T03:12:15.623Z,976.37
2018-01-04T03:13:15.543Z,976.37
2018-01-04T03:14:15.462Z,976.41
2018-01-04T03:15:15.384Z,976.35
2018-01-04T03:16:15.303Z,976.28
2018-01-04T03:17:15.224Z,976.24
2018-01-04T03:18:15.143Z,976.27
2018-01-04T03:19:15.067Z,976.27
2018-01-04T03:20:14.984Z,976.20
2018-01-04T03:21:14.903Z,976.20
2018-01-04T03:22:14.823Z,976.17
2018-01-04T03:23:14.748Z,976.14
2018-01-04T03:24:14.666Z,976.11
2018-01-04T03:25:14.583Z,976.00
2018-01-04T03:26:14.502Z,976.02
2018-01-04T03:27:14.426Z,976.02
2018-01-04T03:28:14.350Z,976.02
2018-01-04T03:29:14.262Z,975.95
2018-01-04T03:30:14.184Z,975.89
2018-01-04T03:31:14.102Z,975.90
2018-01-04T03:32:14.023Z,975.87
2018-01-04T03:33:13.941Z,975.92
2018-01-04T03:34:13.862Z,975.84
2018-01-04T03:35:13.782Z,975.89
2018-01-04T03:36:13.709Z,975.84
2018-01-04T03:37:13.621Z,975.80
2018-01-04T03:38:13.541Z,975.75
2018-01-04T03:39:13.461Z,975.79
2018-01-04T03:40:13.382Z,975.77
2018-01-04T03:41:13.300Z,975.86
2018-01-04T03:42:13.221Z,975.81
2018-01-04T03:43:13.142Z,975.74
2018-01-04T03:44:13.066Z,975.77
2018-01-04T03:45:12.980Z,975.68
2018-01-04T03:46:12.901Z,975.81
2018-01-04T03:47:12.820Z,975.68
2018-01-04T03:48:12.741Z,975.76
2018-01-04T03:49:12.660Z,975.71
2018-01-04T03:50:12.582Z,975.80
2018-01-04T03:51:12.502Z,975.89
2018-01-04T03:52:12.426Z,975.80
2018-01-04T03:53:12.340Z,975.80
2018-01-04T03:54:12.260Z,975.78
2018-01-04T03:55:12.180Z,975.79
2018-01-04T03:56:12.100Z,975.78
2018-01-04T03:57:12.020Z,975.83
2018-01-04T03:58:11.939Z,975.86
2018-01-04T03:59:11.858Z,975.79
2018-01-04T04:00:11.779Z,975.84
2018-01-04T04:01:11.699Z,975.87
2018-01-04T04:02:11.619Z,975.98
2018-01-04T04:03:11.539Z,975.92
2018-01-04T04:04:11.460Z,975.89
2018-01-04T04:05:11.380Z,975.93
2018-01-04T04:06:11.299Z,975.92
2018-01-04T04:07:11.219Z,975.89
2018-01-04T04:08:11.138Z,975.97
2018-01-04T04:09:11.059Z,975.94
2018-01-04T04:10:10.979Z,975.90
2018-01-04T04:11:10.899Z,975.88
2018-01-04T04:12:10.820Z,975.86
2018-01-04T04:13:10.739Z,975.94
2018-01-04T04:14:10.660Z,975.99
2018-01-04T04:15:10.580Z,975.98
2018-01-04T04:16:10.500Z,975.99
2018-01-04T04:17:10.420Z,975.91
2018-01-04T04:18:10.340Z,976.08
2018-01-04T04:19:10.260Z,975.98
2018-01-04T04:20:10.182Z,976.06
2018-01-04T04:21:10.100Z,976.06
2018-01-04T04:22:10.021Z,976.02
2018-01-04T04:23:09.941Z,975.96
2018-01-04T04:24:09.864Z,975.94
2018-01-04T04:25:09.783Z,975.87
2018-01-04T04:26:09.702Z,975.86
2018-01-04T04:27:09.622Z,975.89
2018-01-04T04:28:09.543Z,975.82
2018-01-04T04:29:09.462Z,975.78
2018-01-04T04:30:09.382Z,975.76
2018-01-04T04:31:09.303Z,975.93
2018-01-04T04:32:09.224Z,976.01
2018-01-04T04:33:09.144Z,975.99
2018-01-04T04:34:09.064Z,976.00
2018-01-04T04:35:08.984Z,976.00
2018-01-04T04:36:08.905Z,976.06
2018-01-04T04:37:08.825Z,976.04
2018-01-04T04:38:08.745Z,976.15
2018-01-04T04:39:08.666Z,976.04
2018-01-04T04:40:08.586Z,976.03
2018-01-04T04:41:08.507Z,976.05
2018-01-04T04:42:08.427Z,976.00
2018-01-04T04:43:08.347Z,976.09
2018-01-04T04:44:08.267Z,976.01
2018-01-04T04:45:08.187Z,976.16
2018-01-04T04:46:08.109Z,975.98
2018-01-04T04:47:08.033Z,975.97
2018-01-04T04:48:07.949Z,975.99
2018-01-04T04:49:07.869Z,976.01
2018-01-04T04:50:07.790Z,975.94
2018-01-04T04:51:07.712Z,975.98
2018-01-04T04:52:07.632Z,975.99
2018-01-04T04:53:07.551Z,975.99
2018-01-04T04:54:07.472Z,975.89
2018-01-04T04:55:07.392Z,975.95
2018-01-04T04:56:07.316Z,975.89
2018-01-04T04:57:07.233Z,975.92
2018-01-04T04:58:07.160Z,975.95
2018-01-04T04:59:07.074Z,975.96
2018-01-04T05:00:06.996Z,976.13
2018-01-04T05:01:06.915Z,976.13
2018-01-04T05:02:06.841Z,976.12
2018-01-04T05:03:06.755Z,976.07
2018-01-04T05:04:06.676Z,976.05
2018-01-04T05:05:06.596Z,976.03
2018-01-04T05:06:06.516Z,976.00
2018-01-04T05:07:06.438Z,976.03
2018-01-04T05:08:06.358Z,976.00
2018-01-04T05:09:06.277Z,976.09
2018-01-04T05:10:06.198Z,976.11
2018-01-04T05:11:06.118Z,976.08
2018-01-04T05:12:06.039Z,976.11
2018-01-04T05:13:05.959Z,975.96
2018-01-04T05:14:05.880Z,976.03
2018-01-04T05:15:05.800Z,976.03
2018-01-04T05:16:05.720Z,976.04
2018-01-04T05:17:05.640Z,976.06
2018-01-04T05:18:05.561Z,976.07
2018-01-04T05:19:05.481Z,976.08
2018-01-04T05:20:05.402Z,976.02
2018-01-04T05:21:05.323Z,976.05
2018-01-04T05:22:05.242Z,975.98
2018-01-04T05:23:05.163Z,975.95
2018-01-04T05:24:05.083Z,976.01
2018-01-04T05:25:05.007Z,975.95
2018-01-04T05:26:04.923Z,976.05
2018-01-04T05:27:04.844Z,976.07
2018-01-04T05:28:04.764Z,976.06
2018-01-04T05:29:04.684Z,975.97
2018-01-04T05:30:04.606Z,975.96
2018-01-04T05:31:04.526Z,975.94
2018-01-04T05:32:04.449Z,975.93
2018-01-04T05:33:04.366Z,975.93
2018-01-04T05:34:04.287Z,975.92
2018-01-04T05:35:04.211Z,975.88
2018-01-04T05:36:04.129Z,975.76
2018-01-04T05:37:04.048Z,975.81
2018-01-04T05:38:03.970Z,975.85
2018-01-04T05:39:03.890Z,975.83
2018-01-04T05:40:03.811Z,975.81
2018-01-04T05:41:03.730Z,975.88
2018-01-04T05:42:03.651Z,975.94
2018-01-04T05:43:03.572Z,975.91
2018-01-04T05:44:03.492Z,975.89
2018-01-04T05:45:03.411Z,975.86
2018-01-04T05:46:03.337Z,975.91
2018-01-04T05:47:03.257Z,975.78
2018-01-04T05:48:03.174Z,975.81
2018-01-04T05:49:03.093Z,975.84
2018-01-04T05:50:03.014Z,975.88
2018-01-04T05:51:02.935Z,975.90
2018-01-04T05:52:02.856Z,975.96
2018-01-04T05:53:02.775Z,975.95
2018-01-04T05:54:02.696Z,975.92
2018-01-04T05:55:02.616Z,975.98
2018-01-04T05:56:02.537Z,975.95
2018-01-04T05:57:02.456Z,975.90
2018-01-04T05:58:02.378Z,975.83
2018-01-04T05:59:02.298Z,975.83
2018-01-04T06:00:02.218Z,975.93
2018-01-04T06:01:02.139Z,975.85
2018-01-04T06:02:02.058Z,975.90
2018-01-04T06:03:01.980Z,975.93
2018-01-04T06:04:01.899Z,975.80
2018-01-04T06:05:01.819Z,975.81
2018-01-04T06:06:01.740Z,975.88
2018-01-04T06:07:01.660Z,975.88
2018-01-04T06:08:01.581Z,975.90
2018-01-04T06:09:01.513Z,975.85
2018-01-04T06:10:01.420Z,975.90
2018-01-04T06:11:01.340Z,975.89
2018-01-04T06:12:01.262Z,975.87
2018-01-04T06:13:01.181Z,975.95
2018-01-04T06:14:01.102Z,975.88
2018-01-04T06:15:01.022Z,975.87
2018-01-04T06:16:00.943Z,975.88
2018-01-04T06:17:00.862Z,975.90
2018-01-04T06:18:00.783Z,975.89
2018-01-04T06:19:00.703Z,975.81
2018-01-04T06:20:00.623Z,975.81
2018-01-04T06:21:00.543Z,975.63
2018-01-04T06:22:00.462Z,975.62
2018-01-04T06:23:00.384Z,975.45
2018-01-04T06:24:00.306Z,975.36
2018-01-04T06:25:00.225Z,975.31
2018-01-04T06:26:00.145Z,975.22
2018-01-04T06:27:00.066Z,975.20
2018-01-04T06:27:59.985Z,975.19
2018-01-04T06:28:59.906Z,975.22
2018-01-04T06:29:59.826Z,975.23
2018-01-04T06:30:59.747Z,975.21
2018-01-04T06:31:59.668Z,975.16
2018-01-04T06:32:59.588Z,975.13
2018-01-04T06:33:59.509Z,975.11
2018-01-04T06:34:59.428Z,975.08
2018-01-04T06:35:59.350Z,975.18
2018-01-04T06:36:59.269Z,975.28
2018-01-04T06:37:59.189Z,975.32
2018-01-04T06:38:59.110Z,975.41
2018-01-04T06:39:59.030Z,975.48
2018-01-04T06:40:58.950Z,975.48
2018-01-04T06:41:58.870Z,975.44
2018-01-04T06:42:58.791Z,975.40
2018-01-04T06:43:58.712Z,975.39
2018-01-04T06:44:58.631Z,975.38
2018-01-04T06:45:58.551Z,975.44
2018-01-04T06:46:58.472Z,975.37
2018-01-04T06:47:58.392Z,975.38
2018-01-04T06:48:58.311Z,975.27
2018-01-04T06:49:58.232Z,975.42
2018-01-04T06:50:58.153Z,975.45
2018-01-04T06:51:58.073Z,975.43
2018-01-04T06:52:57.992Z,975.38
2018-01-04T06:53:57.912Z,975.40
2018-01-04T06:54:57.833Z,975.33
2018-01-04T06:55:57.752Z,975.40
2018-01-04T06:56:57.674Z,975.32
2018-01-04T06:57:57.592Z,975.34
2018-01-04T06:58:57.511Z,975.26
2018-01-04T06:59:57.433Z,975.33
2018-01-04T07:00:57.353Z,975.29
2018-01-04T07:01:57.276Z,975.27
2018-01-04T07:02:57.194Z,975.26
2018-01-04T07:03:57.114Z,975.29
2018-01-04T07:04:57.034Z,975.33
2018-01-04T07:05:56.954Z,975.25
2018-01-04T07:06:56.875Z,975.31
2018-01-04T07:07:56.839Z,975.28
2018-01-04T07:08:56.715Z,975.34
2018-01-04T07:09:56.634Z,975.29
2018-01-04T07:10:56.555Z,975.25
2018-01-04T07:11:56.476Z,975.17
2018-01-04T07:12:56.396Z,975.20
2018-01-04T07:13:56.315Z,975.25
2018-01-04T07:14:56.237Z,975.37
2018-01-04T07:15:56.156Z,975.32
2018-01-04T07:16:56.075Z,975.36
2018-01-04T07:17:55.996Z,975.27
2018-01-04T07:18:55.916Z,975.28
2018-01-04T07:19:55.836Z,975.29
2018-01-04T07:20:55.758Z,975.30
2018-01-04T07:21:55.677Z,975.35
2018-01-04T07:22:55.597Z,975.22
2018-01-04T07:23:55.518Z,975.31
2018-01-04T07:24:55.441Z,975.21
2018-01-04T07:25:55.358Z,975.15
2018-01-04T07:26:55.278Z,975.19
2018-01-04T07:27:55.199Z,975.19
2018-01-04T07:28:55.125Z,975.15
2018-01-04T07:29:55.040Z,975.17
2018-01-04T07:30:54.960Z,975.12
2018-01-04T07:31:54.880Z,975.11
2018-01-04T07:32:54.800Z,975.12
2018-01-04T07:33:54.719Z,975.11
2018-01-04T07:34:54.640Z,975.07
2018-01-04T07:35:54.561Z,975.05
2018-01-04T07:36:54.480Z,974.98
2018-01-04T07:37:54.401Z,975.03
2018-01-04T07:38:54.321Z,974.96
2018-01-04T07:39:54.242Z,974.94
2018-01-04T07:40:54.162Z,974.90
2018-01-04T07:41:54.082Z,974.85
2018-01-04T07:42:54.002Z,974.89
2018-01-04T07:43:53.925Z,974.87
2018-01-04T07:44:53.843Z,974.89
2018-01-04T07:45:53.763Z,974.93
2018-01-04T07:46:53.683Z,974.91
2018-01-04T07:47:53.607Z,974.95
2018-01-04T07:48:53.522Z,974.87
2018-01-04T07:49:53.443Z,974.92
2018-01-04T07:50:53.364Z,974.95
2018-01-04T07:51:53.284Z,974.99
2018-01-04T07:52:53.203Z,974.88
2018-01-04T07:53:53.124Z,974.90
2018-01-04T07:54:53.044Z,974.85
2018-01-04T07:55:52.966Z,974.83
2018-01-04T07:56:52.884Z,974.88
2018-01-04T07:57:52.805Z,974.85
2018-01-04T07:58:52.726Z,974.91
2018-01-04T07:59:52.646Z,974.85
2018-01-04T08:00:52.581Z,974.88
2018-01-04T08:01:52.486Z,974.82
2018-01-04T08:02:52.406Z,974.80
2018-01-04T08:03:52.327Z,974.95
2018-01-04T08:04:52.246Z,974.85
2018-01-04T08:05:52.168Z,974.90
2018-01-04T08:06:52.089Z,974.98
2018-01-04T08:07:52.009Z,975.00
2018-01-04T08:08:51.928Z,974.93
2018-01-04T08:09:51.857Z,974.94
2018-01-04T08:10:51.770Z,974.97
2018-01-04T08:11:51.693Z,974.99
2018-01-04T08:12:51.610Z,975.00
2018-01-04T08:13:51.532Z,975.03
2018-01-04T08:14:51.452Z,975.00
2018-01-04T08:15:51.373Z,974.99
2018-01-04T08:16:51.292Z,974.98
2018-01-04T08:17:51.214Z,975.01
2018-01-04T08:18:51.135Z,974.97
2018-01-04T08:19:51.056Z,974.93
2018-01-04T08:20:50.976Z,974.97
2018-01-04T08:21:50.897Z,974.96
2018-01-04T08:22:50.817Z,974.92
2018-01-04T08:23:50.739Z,974.95
2018-01-04T08:24:50.659Z,974.97
2018-01-04T08:25:50.580Z,975.00
2018-01-04T08:26:50.500Z,975.02
2018-01-04T08:27:50.421Z,975.02
2018-01-04T08:28:50.342Z,975.05
2018-01-04T08:29:50.265Z,975.03
2018-01-04T08:30:50.185Z,975.03
2018-01-04T08:31:50.105Z,975.04
2018-01-04T08:32:50.028Z,975.02
2018-01-04T08:33:49.946Z,975.02
2018-01-04T08:34:49.867Z,975.04
2018-01-04T08:35:49.789Z,975.08
2018-01-04T08:36:49.745Z,975.07
2018-01-04T08:37:49.630Z,975.08
2018-01-04T08:38:49.551Z,975.07
2018-01-04T08:39:49.472Z,975.03
2018-01-04T08:40:49.392Z,975.01
2018-01-04T08:41:49.313Z,975.03
2018-01-04T08:42:49.234Z,974.96
2018-01-04T08:43:49.166Z,974.97
2018-01-04T08:44:49.075Z,974.92
2018-01-04T08:45:48.996Z,974.94
2018-01-04T08:46:48.918Z,974.93
2018-01-04T08:47:48.842Z,974.85
2018-01-04T08:48:48.759Z,974.95
2018-01-04T08:49:48.681Z,974.89
2018-01-04T08:50:48.600Z,974.90
2018-01-04T08:51:48.522Z,974.94
2018-01-04T08:52:48.442Z,974.92
2018-01-04T08:53:48.363Z,974.88
2018-01-04T08:54:48.284Z,974.86
2018-01-04T08:55:48.205Z,974.88
2018-01-04T08:56:48.124Z,974.86
2018-01-04T08:57:48.045Z,974.86
2018-01-04T08:58:47.966Z,974.86
2018-01-04T08:59:47.888Z,974.86
2018-01-04T09:00:47.814Z,974.94
2018-01-04T09:01:47.728Z,974.96
2018-01-04T09:02:47.648Z,974.97
2018-01-04T09:03:47.571Z,974.95
2018-01-04T09:04:47.491Z,974.94
2018-01-04T09:05:47.412Z,974.90
2018-01-04T09:06:47.331Z,974.86
2018-01-04T09:07:47.253Z,974.88
2018-01-04T09:08:47.172Z,974.90
2018-01-04T09:09:47.093Z,974.89
2018-01-04T09:10:47.015Z,974.94
2018-01-04T09:11:46.935Z,974.85
2018-01-04T09:12:46.856Z,974.85
2018-01-04T09:13:46.776Z,974.87
2018-01-04T09:14:46.697Z,974.86
2018-01-04T09:15:46.618Z,974.77
2018-01-04T09:16:46.538Z,974.73
2018-01-04T09:17:46.459Z,974.82
2018-01-04T09:18:46.380Z,974.77
2018-01-04T09:19:46.300Z,974.72
2018-01-04T09:20:46.221Z,974.74
2018-01-04T09:21:46.141Z,974.75
2018-01-04T09:22:46.061Z,974.69
2018-01-04T09:23:45.983Z,974.67
2018-01-04T09:24:45.903Z,974.73
2018-01-04T09:25:45.826Z,974.71
2018-01-04T09:26:45.745Z,974.66
2018-01-04T09:27:45.667Z,974.68
2018-01-04T09:28:45.587Z,974.61
2018-01-04T09:29:45.507Z,974.57
2018-01-04T09:30:45.428Z,974.59
2018-01-04T09:31:45.350Z,974.65
2018-01-04T09:32:45.269Z,974.62
2018-01-04T09:33:45.190Z,974.59
2018-01-04T09:34:45.112Z,974.61
2018-01-04T09:35:45.032Z,974.51
2018-01-04T09:36:44.951Z,974.52
2018-01-04T09:37:44.873Z,974.52
2018-01-04T09:38:44.794Z,974.52
2018-01-04T09:39:44.716Z,974.48
2018-01-04T09:40:44.634Z,974.48
2018-01-04T09:41:44.556Z,974.49
2018-01-04T09:42:44.477Z,974.47
2018-01-04T09:43:44.398Z,974.45
2018-01-04T09:44:44.317Z,974.46
2018-01-04T09:45:44.240Z,974.39
2018-01-04T09:46:44.160Z,974.34
2018-01-04T09:47:44.081Z,974.31
2018-01-04T09:48:44.002Z,974.31
2018-01-04T09:49:43.922Z,974.29
2018-01-04T09:50:43.843Z,974.30
2018-01-04T09:51:43.764Z,974.25
2018-01-04T09:52:43.684Z,974.23
2018-01-04T09:53:43.606Z,974.16
2018-01-04T09:54:43.527Z,974.14
2018-01-04T09:55:43.448Z,974.12
2018-01-04T09:56:43.373Z,974.12
2018-01-04T09:57:43.289Z,974.06
2018-01-04T09:58:43.210Z,974.06
2018-01-04T09:59:43.134Z,974.01
2018-01-04T10:00:43.052Z,974.04
2018-01-04T10:01:42.972Z,974.01
2018-01-04T10:02:42.893Z,974.01
2018-01-04T10:03:42.815Z,973.94
2018-01-04T10:04:42.738Z,973.92
2018-01-04T10:05:42.656Z,973.95
2018-01-04T10:06:42.577Z,973.93
2018-01-04T10:07:42.499Z,973.92
2018-01-04T10:08:42.417Z,973.88
2018-01-04T10:09:42.339Z,973.91
2018-01-04T10:10:42.261Z,973.87
2018-01-04T10:11:42.181Z,973.93
2018-01-04T10:12:42.106Z,973.93
2018-01-04T10:13:42.022Z,973.90
2018-01-04T10:14:41.945Z,973.82
2018-01-04T10:15:41.865Z,973.81
2018-01-04T10:16:41.785Z,973.74
2018-01-04T10:17:41.733Z,973.73
2018-01-04T10:18:41.627Z,973.69
2018-01-04T10:19:41.548Z,973.64
2018-01-04T10:20:41.470Z,973.54
2018-01-04T10:21:41.392Z,973.51
2018-01-04T10:22:41.311Z,973.51
2018-01-04T10:23:41.233Z,973.48
2018-01-04T10:24:41.153Z,973.51
2018-01-04T10:25:41.074Z,973.51
2018-01-04T10:26:40.996Z,973.50
2018-01-04T10:27:40.918Z,973.51
2018-01-04T10:28:40.839Z,973.51
2018-01-04T10:29:40.759Z,973.49
2018-01-04T10:30:40.680Z,973.42
2018-01-04T10:31:40.604Z,973.37
2018-01-04T10:32:40.527Z,973.37
2018-01-04T10:33:40.445Z,973.35
2018-01-04T10:34:40.368Z,973.34
2018-01-04T10:35:40.288Z,973.38
2018-01-04T10:36:40.209Z,973.30
2018-01-04T10:37:40.130Z,973.29
2018-01-04T10:38:40.053Z,973.27
2018-01-04T10:39:39.974Z,973.20
2018-01-04T10:40:39.894Z,973.18
2018-01-04T10:41:39.816Z,973.20
2018-01-04T10:42:39.738Z,973.15
2018-01-04T10:43:39.660Z,973.08
2018-01-04T10:44:39.581Z,973.06
2018-01-04T10:45:39.502Z,973.02
2018-01-04T10:46:39.429Z,972.99
2018-01-04T10:47:39.347Z,973.03
2018-01-04T10:48:39.266Z,972.97
2018-01-04T10:49:39.192Z,972.95
2018-01-04T10:50:39.110Z,972.92
2018-01-04T10:51:39.031Z,972.92
2018-01-04T10:52:38.952Z,972.96
2018-01-04T10:53:38.874Z,972.88
2018-01-04T10:54:38.796Z,972.90
2018-01-04T10:55:38.717Z,972.89
2018-01-04T10:56:38.637Z,972.85
2018-01-04T10:57:38.560Z,972.89
2018-01-04T10:58:38.483Z,972.84
2018-01-04T10:59:38.405Z,972.82
2018-01-04T11:00:38.326Z,972.76
2018-01-04T11:01:38.247Z,972.78
2018-01-04T11:02:38.168Z,972.74
2018-01-04T11:03:38.091Z,972.73
2018-01-04T11:04:38.013Z,972.69
2018-01-04T11:05:37.935Z,972.71
2018-01-04T11:06:37.857Z,972.73
2018-01-04T11:07:37.779Z,972.76
2018-01-04T11:08:37.701Z,972.75
2018-01-04T11:09:37.623Z,972.70
2018-01-04T11:10:37.545Z,972.67
2018-01-04T11:11:37.468Z,972.70
2018-01-04T11:12:37.389Z,972.65
2018-01-04T11:13:37.313Z,972.66
2018-01-04T11:14:37.234Z,972.62
2018-01-04T11:15:37.156Z,972.64
2018-01-04T11:16:37.078Z,972.61
2018-01-04T11:17:37.001Z,972.55
2018-01-04T11:18:36.923Z,972.53
2018-01-04T11:19:36.846Z,972.51
2018-01-04T11:20:36.766Z,972.47
2018-01-04T11:21:36.690Z,972.49
2018-01-04T11:22:36.611Z,972.45
2018-01-04T11:23:36.534Z,972.42
2018-01-04T11:24:36.455Z,972.43
2018-01-04T11:25:36.377Z,972.41
2018-01-04T11:26:36.301Z,972.42
2018-01-04T11:27:36.222Z,972.43
2018-01-04T11:28:36.144Z,972.39
2018-01-04T11:29:36.065Z,972.36
2018-01-04T11:30:35.988Z,972.31
2018-01-04T11:31:35.910Z,972.33
2018-01-04T11:32:35.832Z,972.29
2018-01-04T11:33:35.754Z,972.27
2018-01-04T11:34:35.676Z,972.25
2018-01-04T11:35:35.600Z,972.23
2018-01-04T11:36:35.520Z,972.20
2018-01-04T11:37:35.443Z,972.20
2018-01-04T11:38:35.368Z,972.15
2018-01-04T11:39:35.287Z,972.07
2018-01-04T11:40:35.210Z,972.11
2018-01-04T11:41:35.130Z,972.07
2018-01-04T11:42:35.053Z,972.04
2018-01-04T11:43:34.975Z,972.09
2018-01-04T11:44:34.896Z,972.01
2018-01-04T11:45:34.819Z,971.98
2018-01-04T11:46:34.742Z,971.92
2018-01-04T11:47:34.663Z,971.94
2018-01-04T11:48:34.584Z,971.96
2018-01-04T11:49:34.506Z,971.95
2018-01-04T11:50:34.429Z,971.86
2018-01-04T11:51:34.351Z,971.85
2018-01-04T11:52:34.273Z,971.88
2018-01-04T11:53:34.196Z,971.81
2018-01-04T11:54:34.117Z,971.79
2018-01-04T11:55:34.040Z,971.77
2018-01-04T11:56:33.960Z,971.77
2018-01-04T11:57:33.884Z,971.76
2018-01-04T11:58:33.806Z,971.73
2018-01-04T11:59:33.729Z,971.74
2018-01-04T12:00:33.650Z,971.70
2018-01-04T12:01:33.573Z,971.67
2018-01-04T12:02:33.495Z,971.63
2018-01-04T12:03:33.418Z,971.60
2018-01-04T12:04:33.339Z,971.54
2018-01-04T12:05:33.263Z,971.56
2018-01-04T12:06:33.185Z,971.57
2018-01-04T12:07:33.110Z,971.54
2018-01-04T12:08:33.029Z,971.52
2018-01-04T12:09:32.952Z,971.49
2018-01-04T12:10:32.875Z,971.47
2018-01-04T12:11:32.797Z,971.45
2018-01-04T12:12:32.724Z,971.42
2018-01-04T12:13:32.643Z,971.43
2018-01-04T12:14:32.565Z,971.41
2018-01-04T12:15:32.487Z,971.42
2018-01-04T12:16:32.410Z,971.36
2018-01-04T12:17:32.333Z,971.30
2018-01-04T12:18:32.255Z,971.13
2018-01-04T12:19:32.178Z,971.09
2018-01-04T12:20:32.101Z,971.08
2018-01-04T12:21:32.023Z,971.10
2018-01-04T12:22:31.946Z,971.12
2018-01-04T12:23:31.869Z,971.10
2018-01-04T12:24:31.791Z,971.09
2018-01-04T12:25:31.715Z,971.15
2018-01-04T12:26:31.637Z,971.11
2018-01-04T12:27:31.560Z,971.21